sensor_id;sensor_type;location;lat;lon;timestamp;temperature;humidity
20498;DHT22;10407;53.238;10.448;2022-12-18T00:01:26;-4.50;99.90
20498;DHT22;10407;53.238;10.448;2022-12-18T00:04:21;-4.40;99.90
20498;DHT22;10407;53.238;10.448;2022-12-18T00:06:49;-4.30;99.90
20498;DHT22;10407;53.238;10.448;2022-12-18T00:09:17;-4.20;99.90
20498;DHT22;10407;53.238;10.448;2022-12-18T00:11:45;-4.20;99.90
20498;DHT22;10407;53.238;10.448;2022-12-18T00:14:13;-4.10;99.90
20498;DHT22;10407;53.238;10.448;2022-12-18T00:16:45;-3.90;99.90
20498;DHT22;10407;53.238;10.448;2022-12-18T00:19:14;-3.80;99.90
20498;DHT22;10407;53.238;10.448;2022-12-18T00:21:42;-3.80;99.90
20498;DHT22;10407;53.238;10.448;2022-12-18T00:24:11;-3.90;99.90
20498;DHT22;10407;53.238;10.448;2022-12-18T00:26:39;-3.90;99.90
20498;DHT22;10407;53.238;10.448;2022-12-18T00:29:12;-3.80;99.90
20498;DHT22;10407;53.238;10.448;2022-12-18T00:31:41;-3.80;99.90
20498;DHT22;10407;53.238;10.448;2022-12-18T00:34:11;-4.10;99.90
20498;DHT22;10407;53.238;10.448;2022-12-18T00:36:39;-4.10;99.90
20498;DHT22;10407;53.238;10.448;2022-12-18T00:39:07;-3.90;99.90
20498;DHT22;10407;53.238;10.448;2022-12-18T00:41:35;-3.80;99.90
20498;DHT22;10407;53.238;10.448;2022-12-18T00:44:20;-3.70;99.90
20498;DHT22;10407;53.238;10.448;2022-12-18T00:46:48;-3.60;99.90
20498;DHT22;10407;53.238;10.448;2022-12-18T00:49:18;-3.60;99.90
20498;DHT22;10407;53.238;10.448;2022-12-18T00:51:46;-3.80;99.90
20498;DHT22;10407;53.238;10.448;2022-12-18T00:54:15;-3.70;99.90
20498;DHT22;10407;53.238;10.448;2022-12-18T00:56:42;-3.70;99.90
20498;DHT22;10407;53.238;10.448;2022-12-18T00:59:10;-3.70;99.90
20498;DHT22;10407;53.238;10.448;2022-12-18T01:01:37;-3.60;99.90
20498;DHT22;10407;53.238;10.448;2022-12-18T01:04:05;-3.70;99.90
20498;DHT22;10407;53.238;10.448;2022-12-18T01:06:33;-3.80;99.90
20498;DHT22;10407;53.238;10.448;2022-12-18T01:09:01;-3.90;99.90
20498;DHT22;10407;53.238;10.448;2022-12-18T01:11:28;-3.80;99.90
20498;DHT22;10407;53.238;10.448;2022-12-18T01:13:56;-3.80;99.90
20498;DHT22;10407;53.238;10.448;2022-12-18T01:16:23;-3.90;99.90
20498;DHT22;10407;53.238;10.448;2022-12-18T01:18:52;-3.80;99.90
20498;DHT22;10407;53.238;10.448;2022-12-18T01:21:22;-3.80;99.90
20498;DHT22;10407;53.238;10.448;2022-12-18T01:23:54;-3.90;99.90
20498;DHT22;10407;53.238;10.448;2022-12-18T01:26:22;-3.90;99.90
20498;DHT22;10407;53.238;10.448;2022-12-18T01:28:50;-3.80;99.90
20498;DHT22;10407;53.238;10.448;2022-12-18T01:31:21;-3.70;99.90
20498;DHT22;10407;53.238;10.448;2022-12-18T01:33:49;-3.70;99.90
20498;DHT22;10407;53.238;10.448;2022-12-18T01:36:31;-3.80;99.90
20498;DHT22;10407;53.238;10.448;2022-12-18T01:39:01;-3.90;99.90
20498;DHT22;10407;53.238;10.448;2022-12-18T01:41:31;-3.80;99.90
20498;DHT22;10407;53.238;10.448;2022-12-18T01:53:05;-4.00;99.90
20498;DHT22;10407;53.238;10.448;2022-12-18T01:55:39;-3.90;99.90
20498;DHT22;10407;53.238;10.448;2022-12-18T01:58:06;-4.20;99.90
20498;DHT22;10407;53.238;10.448;2022-12-18T02:00:33;-4.10;99.90
20498;DHT22;10407;53.238;10.448;2022-12-18T02:03:01;-4.00;99.90
20498;DHT22;10407;53.238;10.448;2022-12-18T02:05:57;-3.90;99.90
20498;DHT22;10407;53.238;10.448;2022-12-18T02:08:33;-4.00;99.90
20498;DHT22;10407;53.238;10.448;2022-12-18T02:11:12;-4.00;99.90
20498;DHT22;10407;53.238;10.448;2022-12-18T02:16:58;-4.10;99.90
20498;DHT22;10407;53.238;10.448;2022-12-18T02:19:50;-4.10;99.90
20498;DHT22;10407;53.238;10.448;2022-12-18T02:22:34;-4.00;99.90
20498;DHT22;10407;53.238;10.448;2022-12-18T02:27:47;-4.10;99.90
20498;DHT22;10407;53.238;10.448;2022-12-18T02:30:16;-4.10;99.90
20498;DHT22;10407;53.238;10.448;2022-12-18T02:32:47;-4.10;99.90
20498;DHT22;10407;53.238;10.448;2022-12-18T02:35:23;-4.20;99.90
20498;DHT22;10407;53.238;10.448;2022-12-18T02:37:52;-4.30;99.90
20498;DHT22;10407;53.238;10.448;2022-12-18T02:40:23;-4.30;99.90
20498;DHT22;10407;53.238;10.448;2022-12-18T02:42:51;-4.50;99.90
20498;DHT22;10407;53.238;10.448;2022-12-18T02:45:19;-4.50;99.90
20498;DHT22;10407;53.238;10.448;2022-12-18T02:47:48;-4.60;99.90
20498;DHT22;10407;53.238;10.448;2022-12-18T02:50:31;-4.60;99.90
20498;DHT22;10407;53.238;10.448;2022-12-18T02:54:05;-4.60;99.90
20498;DHT22;10407;53.238;10.448;2022-12-18T02:56:03;-4.50;99.90
20498;DHT22;10407;53.238;10.448;2022-12-18T03:01:21;-4.60;99.90
20498;DHT22;10407;53.238;10.448;2022-12-18T03:03:51;-4.50;99.90
20498;DHT22;10407;53.238;10.448;2022-12-18T03:06:29;-4.50;99.90
20498;DHT22;10407;53.238;10.448;2022-12-18T03:09:00;-4.50;99.90
20498;DHT22;10407;53.238;10.448;2022-12-18T03:11:30;-4.40;99.90
20498;DHT22;10407;53.238;10.448;2022-12-18T03:14:18;-4.60;99.90
20498;DHT22;10407;53.238;10.448;2022-12-18T03:16:49;-4.70;99.90
20498;DHT22;10407;53.238;10.448;2022-12-18T03:19:20;-5.00;99.90
20498;DHT22;10407;53.238;10.448;2022-12-18T03:21:51;-5.00;99.90
20498;DHT22;10407;53.238;10.448;2022-12-18T03:24:20;-5.00;99.90
20498;DHT22;10407;53.238;10.448;2022-12-18T03:26:50;-5.20;99.90
20498;DHT22;10407;53.238;10.448;2022-12-18T03:29:25;-5.10;99.90
20498;DHT22;10407;53.238;10.448;2022-12-18T03:31:54;-5.20;99.90
20498;DHT22;10407;53.238;10.448;2022-12-18T03:34:26;-5.00;99.90
20498;DHT22;10407;53.238;10.448;2022-12-18T03:36:53;-5.10;99.90
20498;DHT22;10407;53.238;10.448;2022-12-18T03:39:20;-5.30;99.90
20498;DHT22;10407;53.238;10.448;2022-12-18T03:41:55;-5.40;99.90
20498;DHT22;10407;53.238;10.448;2022-12-18T03:44:50;-5.40;99.90
20498;DHT22;10407;53.238;10.448;2022-12-18T03:47:23;-5.30;99.90
20498;DHT22;10407;53.238;10.448;2022-12-18T03:55:03;-5.10;99.90
20498;DHT22;10407;53.238;10.448;2022-12-18T03:57:33;-5.20;99.90
20498;DHT22;10407;53.238;10.448;2022-12-18T04:00:04;-5.30;99.90
20498;DHT22;10407;53.238;10.448;2022-12-18T04:02:32;-5.30;99.90
20498;DHT22;10407;53.238;10.448;2022-12-18T04:05:04;-5.40;99.90
20498;DHT22;10407;53.238;10.448;2022-12-18T04:07:32;-5.60;99.90
20498;DHT22;10407;53.238;10.448;2022-12-18T04:10:02;-5.40;99.90
20498;DHT22;10407;53.238;10.448;2022-12-18T04:12:30;-5.40;99.90
20498;DHT22;10407;53.238;10.448;2022-12-18T04:14:58;-5.40;99.90
20498;DHT22;10407;53.238;10.448;2022-12-18T04:17:26;-5.40;99.90
20498;DHT22;10407;53.238;10.448;2022-12-18T04:19:53;-5.40;99.90
20498;DHT22;10407;53.238;10.448;2022-12-18T04:22:21;-5.40;99.90
20498;DHT22;10407;53.238;10.448;2022-12-18T04:24:48;-5.30;99.90
20498;DHT22;10407;53.238;10.448;2022-12-18T04:27:16;-5.30;99.90
20498;DHT22;10407;53.238;10.448;2022-12-18T04:29:43;-5.40;99.90
20498;DHT22;10407;53.238;10.448;2022-12-18T04:32:11;-5.60;99.90
20498;DHT22;10407;53.238;10.448;2022-12-18T04:34:38;-5.80;99.90
20498;DHT22;10407;53.238;10.448;2022-12-18T04:37:06;-5.90;99.90
20498;DHT22;10407;53.238;10.448;2022-12-18T04:39:34;-5.90;99.90
20498;DHT22;10407;53.238;10.448;2022-12-18T04:42:02;-5.90;99.90
20498;DHT22;10407;53.238;10.448;2022-12-18T04:44:29;-5.60;99.90
20498;DHT22;10407;53.238;10.448;2022-12-18T04:46:57;-5.40;99.90
20498;DHT22;10407;53.238;10.448;2022-12-18T04:49:24;-5.40;99.90
20498;DHT22;10407;53.238;10.448;2022-12-18T04:51:52;-5.30;99.90
20498;DHT22;10407;53.238;10.448;2022-12-18T04:54:20;-5.10;99.90
20498;DHT22;10407;53.238;10.448;2022-12-18T04:56:47;-5.20;99.90
20498;DHT22;10407;53.238;10.448;2022-12-18T04:59:15;-5.10;99.90
20498;DHT22;10407;53.238;10.448;2022-12-18T05:01:43;-5.30;99.90
20498;DHT22;10407;53.238;10.448;2022-12-18T05:04:10;-5.20;99.90
20498;DHT22;10407;53.238;10.448;2022-12-18T05:06:38;-5.30;99.90
20498;DHT22;10407;53.238;10.448;2022-12-18T05:09:05;-5.30;99.90
20498;DHT22;10407;53.238;10.448;2022-12-18T05:11:33;-5.30;99.90
20498;DHT22;10407;53.238;10.448;2022-12-18T05:14:03;-5.60;99.90
20498;DHT22;10407;53.238;10.448;2022-12-18T05:16:31;-5.50;99.90
20498;DHT22;10407;53.238;10.448;2022-12-18T05:18:58;-5.50;99.90
20498;DHT22;10407;53.238;10.448;2022-12-18T05:21:26;-5.50;99.90
20498;DHT22;10407;53.238;10.448;2022-12-18T05:23:53;-5.60;99.90
20498;DHT22;10407;53.238;10.448;2022-12-18T05:26:21;-5.60;99.90
20498;DHT22;10407;53.238;10.448;2022-12-18T05:28:48;-5.70;99.90
20498;DHT22;10407;53.238;10.448;2022-12-18T05:31:16;-5.70;99.90
20498;DHT22;10407;53.238;10.448;2022-12-18T05:33:44;-5.70;99.90
20498;DHT22;10407;53.238;10.448;2022-12-18T05:36:11;-5.50;99.90
20498;DHT22;10407;53.238;10.448;2022-12-18T05:38:39;-5.30;99.90
20498;DHT22;10407;53.238;10.448;2022-12-18T05:41:08;-5.50;99.90
20498;DHT22;10407;53.238;10.448;2022-12-18T05:43:37;-5.50;99.90
20498;DHT22;10407;53.238;10.448;2022-12-18T05:46:06;-5.60;99.90
20498;DHT22;10407;53.238;10.448;2022-12-18T05:48:34;-5.50;99.90
20498;DHT22;10407;53.238;10.448;2022-12-18T05:51:11;-5.50;99.90
20498;DHT22;10407;53.238;10.448;2022-12-18T05:53:38;-5.70;99.90
20498;DHT22;10407;53.238;10.448;2022-12-18T05:56:09;-5.80;99.90
20498;DHT22;10407;53.238;10.448;2022-12-18T05:58:37;-5.90;99.90
20498;DHT22;10407;53.238;10.448;2022-12-18T06:01:14;-6.00;99.90
20498;DHT22;10407;53.238;10.448;2022-12-18T06:03:41;-6.00;99.90
20498;DHT22;10407;53.238;10.448;2022-12-18T06:06:21;-6.00;99.90
20498;DHT22;10407;53.238;10.448;2022-12-18T06:08:49;-6.00;99.90
20498;DHT22;10407;53.238;10.448;2022-12-18T06:11:19;-6.20;99.90
20498;DHT22;10407;53.238;10.448;2022-12-18T06:13:52;-6.20;99.90
20498;DHT22;10407;53.238;10.448;2022-12-18T06:16:20;-6.10;99.90
20498;DHT22;10407;53.238;10.448;2022-12-18T06:18:47;-6.20;99.90
20498;DHT22;10407;53.238;10.448;2022-12-18T06:21:15;-6.30;99.90
20498;DHT22;10407;53.238;10.448;2022-12-18T06:23:42;-6.30;99.90
20498;DHT22;10407;53.238;10.448;2022-12-18T06:26:11;-6.10;99.90
20498;DHT22;10407;53.238;10.448;2022-12-18T06:28:39;-6.00;99.90
20498;DHT22;10407;53.238;10.448;2022-12-18T06:31:08;-6.10;99.90
20498;DHT22;10407;53.238;10.448;2022-12-18T06:33:36;-6.00;99.90
20498;DHT22;10407;53.238;10.448;2022-12-18T06:36:06;-5.90;99.90
20498;DHT22;10407;53.238;10.448;2022-12-18T06:38:36;-5.80;99.90
20498;DHT22;10407;53.238;10.448;2022-12-18T06:41:08;-5.70;99.90
20498;DHT22;10407;53.238;10.448;2022-12-18T06:43:36;-5.60;99.90
20498;DHT22;10407;53.238;10.448;2022-12-18T06:46:04;-5.70;99.90
20498;DHT22;10407;53.238;10.448;2022-12-18T06:48:32;-5.60;99.90
20498;DHT22;10407;53.238;10.448;2022-12-18T06:51:00;-5.60;99.90
20498;DHT22;10407;53.238;10.448;2022-12-18T06:53:28;-5.80;99.90
20498;DHT22;10407;53.238;10.448;2022-12-18T06:56:02;-5.70;99.90
20498;DHT22;10407;53.238;10.448;2022-12-18T06:58:30;-5.70;99.90
20498;DHT22;10407;53.238;10.448;2022-12-18T07:01:02;-5.80;99.90
20498;DHT22;10407;53.238;10.448;2022-12-18T07:03:30;-5.60;99.90
20498;DHT22;10407;53.238;10.448;2022-12-18T07:05:57;-5.60;99.90
20498;DHT22;10407;53.238;10.448;2022-12-18T07:08:25;-5.50;99.90
20498;DHT22;10407;53.238;10.448;2022-12-18T07:10:53;-5.50;99.90
20498;DHT22;10407;53.238;10.448;2022-12-18T07:13:20;-5.50;99.90
20498;DHT22;10407;53.238;10.448;2022-12-18T07:15:48;-5.50;99.90
20498;DHT22;10407;53.238;10.448;2022-12-18T07:18:15;-5.40;99.90
20498;DHT22;10407;53.238;10.448;2022-12-18T07:20:43;-5.50;99.90
20498;DHT22;10407;53.238;10.448;2022-12-18T07:23:10;-6.30;99.90
20498;DHT22;10407;53.238;10.448;2022-12-18T07:25:38;-5.80;99.90
20498;DHT22;10407;53.238;10.448;2022-12-18T07:28:06;-5.60;99.90
20498;DHT22;10407;53.238;10.448;2022-12-18T07:30:33;-5.60;99.90
20498;DHT22;10407;53.238;10.448;2022-12-18T07:33:02;-5.50;99.90
20498;DHT22;10407;53.238;10.448;2022-12-18T07:35:30;-5.60;99.90
20498;DHT22;10407;53.238;10.448;2022-12-18T07:37:57;-5.70;99.90
20498;DHT22;10407;53.238;10.448;2022-12-18T07:40:28;-5.50;99.90
20498;DHT22;10407;53.238;10.448;2022-12-18T07:42:55;-5.60;99.90
20498;DHT22;10407;53.238;10.448;2022-12-18T07:45:23;-5.70;99.90
20498;DHT22;10407;53.238;10.448;2022-12-18T07:47:50;-5.70;99.90
20498;DHT22;10407;53.238;10.448;2022-12-18T07:50:18;-5.60;99.90
20498;DHT22;10407;53.238;10.448;2022-12-18T07:52:45;-5.50;99.90
20498;DHT22;10407;53.238;10.448;2022-12-18T07:55:13;-5.30;99.90
20498;DHT22;10407;53.238;10.448;2022-12-18T07:57:40;-5.10;99.90
20498;DHT22;10407;53.238;10.448;2022-12-18T08:00:09;-5.00;99.90
20498;DHT22;10407;53.238;10.448;2022-12-18T08:02:36;-4.90;99.90
20498;DHT22;10407;53.238;10.448;2022-12-18T08:05:04;-4.70;99.90
20498;DHT22;10407;53.238;10.448;2022-12-18T08:07:32;-4.50;99.90
20498;DHT22;10407;53.238;10.448;2022-12-18T08:09:59;-4.50;99.90
20498;DHT22;10407;53.238;10.448;2022-12-18T08:12:27;-4.50;99.90
20498;DHT22;10407;53.238;10.448;2022-12-18T08:14:55;-4.20;99.90
20498;DHT22;10407;53.238;10.448;2022-12-18T08:17:23;-4.10;99.90
20498;DHT22;10407;53.238;10.448;2022-12-18T08:19:50;-4.20;99.90
20498;DHT22;10407;53.238;10.448;2022-12-18T08:22:18;-3.90;99.90
20498;DHT22;10407;53.238;10.448;2022-12-18T08:24:45;-4.00;99.90
20498;DHT22;10407;53.238;10.448;2022-12-18T08:27:13;-3.80;99.90
20498;DHT22;10407;53.238;10.448;2022-12-18T08:29:40;-3.80;99.90
20498;DHT22;10407;53.238;10.448;2022-12-18T08:32:08;-3.90;99.90
20498;DHT22;10407;53.238;10.448;2022-12-18T08:34:36;-3.80;99.90
20498;DHT22;10407;53.238;10.448;2022-12-18T08:37:03;-3.60;99.90
20498;DHT22;10407;53.238;10.448;2022-12-18T08:39:31;-3.60;99.90
20498;DHT22;10407;53.238;10.448;2022-12-18T08:41:58;-3.60;99.90
20498;DHT22;10407;53.238;10.448;2022-12-18T08:44:44;-3.50;99.90
20498;DHT22;10407;53.238;10.448;2022-12-18T08:47:11;-3.50;99.90
20498;DHT22;10407;53.238;10.448;2022-12-18T08:49:39;-3.50;99.90
20498;DHT22;10407;53.238;10.448;2022-12-18T08:52:07;-4.00;99.90
20498;DHT22;10407;53.238;10.448;2022-12-18T08:54:35;-3.50;99.90
20498;DHT22;10407;53.238;10.448;2022-12-18T08:57:03;-3.30;99.90
20498;DHT22;10407;53.238;10.448;2022-12-18T08:59:30;-3.40;99.90
20498;DHT22;10407;53.238;10.448;2022-12-18T09:01:58;-3.20;99.90
20498;DHT22;10407;53.238;10.448;2022-12-18T09:04:25;-3.20;99.90
20498;DHT22;10407;53.238;10.448;2022-12-18T09:06:53;-3.10;99.90
20498;DHT22;10407;53.238;10.448;2022-12-18T09:09:21;-3.10;99.90
20498;DHT22;10407;53.238;10.448;2022-12-18T09:11:49;-3.00;99.90
20498;DHT22;10407;53.238;10.448;2022-12-18T09:14:16;-2.80;99.90
20498;DHT22;10407;53.238;10.448;2022-12-18T09:16:44;-2.50;99.90
20498;DHT22;10407;53.238;10.448;2022-12-18T09:19:12;-2.70;99.90
20498;DHT22;10407;53.238;10.448;2022-12-18T09:21:39;-3.20;99.90
20498;DHT22;10407;53.238;10.448;2022-12-18T09:24:11;-3.00;99.90
20498;DHT22;10407;53.238;10.448;2022-12-18T09:26:37;-2.70;99.90
20498;DHT22;10407;53.238;10.448;2022-12-18T09:29:05;-2.80;99.90
20498;DHT22;10407;53.238;10.448;2022-12-18T09:31:36;-2.70;99.90
20498;DHT22;10407;53.238;10.448;2022-12-18T09:34:07;-2.50;99.90
20498;DHT22;10407;53.238;10.448;2022-12-18T09:36:35;-2.50;99.90
20498;DHT22;10407;53.238;10.448;2022-12-18T09:39:03;-2.40;99.90
20498;DHT22;10407;53.238;10.448;2022-12-18T09:44:19;-2.40;99.90
20498;DHT22;10407;53.238;10.448;2022-12-18T09:47:05;-2.70;99.90
20498;DHT22;10407;53.238;10.448;2022-12-18T09:49:31;-2.70;99.90
20498;DHT22;10407;53.238;10.448;2022-12-18T09:52:05;-2.40;99.90
20498;DHT22;10407;53.238;10.448;2022-12-18T09:54:40;-2.30;99.90
20498;DHT22;10407;53.238;10.448;2022-12-18T09:57:19;-2.50;99.90
20498;DHT22;10407;53.238;10.448;2022-12-18T09:59:46;-2.50;99.90
20498;DHT22;10407;53.238;10.448;2022-12-18T10:02:29;-2.20;99.90
20498;DHT22;10407;53.238;10.448;2022-12-18T10:07:55;-2.00;99.90
20498;DHT22;10407;53.238;10.448;2022-12-18T10:10:27;-2.00;99.90
20498;DHT22;10407;53.238;10.448;2022-12-18T10:13:42;-1.90;99.90
20498;DHT22;10407;53.238;10.448;2022-12-18T10:20:43;-1.80;99.90
20498;DHT22;10407;53.238;10.448;2022-12-18T10:23:32;-1.90;99.90
20498;DHT22;10407;53.238;10.448;2022-12-18T10:26:02;-2.00;99.90
20498;DHT22;10407;53.238;10.448;2022-12-18T10:28:31;-1.80;99.90
20498;DHT22;10407;53.238;10.448;2022-12-18T10:31:01;-1.60;99.90
20498;DHT22;10407;53.238;10.448;2022-12-18T10:33:31;-1.80;99.90
20498;DHT22;10407;53.238;10.448;2022-12-18T10:36:00;-1.90;99.90
20498;DHT22;10407;53.238;10.448;2022-12-18T10:38:30;-1.90;99.90
20498;DHT22;10407;53.238;10.448;2022-12-18T10:41:00;-1.90;99.90
20498;DHT22;10407;53.238;10.448;2022-12-18T10:43:38;-1.90;99.90
20498;DHT22;10407;53.238;10.448;2022-12-18T10:48:50;-1.60;99.90
20498;DHT22;10407;53.238;10.448;2022-12-18T10:51:35;-1.90;99.90
20498;DHT22;10407;53.238;10.448;2022-12-18T10:54:05;-1.70;99.90
20498;DHT22;10407;53.238;10.448;2022-12-18T10:56:35;-1.70;99.90
20498;DHT22;10407;53.238;10.448;2022-12-18T10:59:09;-1.60;99.90
20498;DHT22;10407;53.238;10.448;2022-12-18T11:01:55;-1.90;99.90
20498;DHT22;10407;53.238;10.448;2022-12-18T11:04:31;-2.00;99.90
20498;DHT22;10407;53.238;10.448;2022-12-18T11:07:04;-1.90;99.90
20498;DHT22;10407;53.238;10.448;2022-12-18T11:09:38;-1.70;99.90
20498;DHT22;10407;53.238;10.448;2022-12-18T11:12:04;-1.80;99.90
20498;DHT22;10407;53.238;10.448;2022-12-18T11:17:33;-1.80;99.90
20498;DHT22;10407;53.238;10.448;2022-12-18T11:22:57;-1.80;99.90
20498;DHT22;10407;53.238;10.448;2022-12-18T11:25:28;-1.90;99.90
20498;DHT22;10407;53.238;10.448;2022-12-18T11:28:01;-1.70;99.90
20498;DHT22;10407;53.238;10.448;2022-12-18T11:30:35;-1.80;99.90
20498;DHT22;10407;53.238;10.448;2022-12-18T11:33:14;-1.70;99.90
20498;DHT22;10407;53.238;10.448;2022-12-18T11:35:52;-1.60;99.90
20498;DHT22;10407;53.238;10.448;2022-12-18T11:38:40;-1.60;99.90
20498;DHT22;10407;53.238;10.448;2022-12-18T11:41:35;-1.60;99.90
20498;DHT22;10407;53.238;10.448;2022-12-18T11:44:35;-1.80;99.90
20498;DHT22;10407;53.238;10.448;2022-12-18T11:47:00;-1.70;99.90
20498;DHT22;10407;53.238;10.448;2022-12-18T11:49:35;-1.90;99.90
20498;DHT22;10407;53.238;10.448;2022-12-18T11:52:22;-1.80;99.90
20498;DHT22;10407;53.238;10.448;2022-12-18T11:54:57;-1.70;99.90
20498;DHT22;10407;53.238;10.448;2022-12-18T12:03:08;-1.50;99.90
20498;DHT22;10407;53.238;10.448;2022-12-18T12:08:42;-1.60;99.90
20498;DHT22;10407;53.238;10.448;2022-12-18T12:22:28;-1.60;99.90
20498;DHT22;10407;53.238;10.448;2022-12-18T12:30:05;-2.10;99.90
20498;DHT22;10407;53.238;10.448;2022-12-18T12:32:51;-1.90;99.90
20498;DHT22;10407;53.238;10.448;2022-12-18T12:35:24;-1.70;99.90
20498;DHT22;10407;53.238;10.448;2022-12-18T12:38:01;-1.80;99.90
20498;DHT22;10407;53.238;10.448;2022-12-18T12:40:29;-1.80;99.90
20498;DHT22;10407;53.238;10.448;2022-12-18T12:43:03;-1.90;99.90
20498;DHT22;10407;53.238;10.448;2022-12-18T12:48:36;-2.00;99.90
20498;DHT22;10407;53.238;10.448;2022-12-18T12:51:11;-2.10;99.90
20498;DHT22;10407;53.238;10.448;2022-12-18T12:53:38;-2.10;99.90
20498;DHT22;10407;53.238;10.448;2022-12-18T12:56:10;-2.10;99.90
20498;DHT22;10407;53.238;10.448;2022-12-18T12:58:56;-1.90;99.90
20498;DHT22;10407;53.238;10.448;2022-12-18T13:01:34;-1.80;99.90
20498;DHT22;10407;53.238;10.448;2022-12-18T13:06:47;-1.90;99.90
20498;DHT22;10407;53.238;10.448;2022-12-18T13:09:12;-1.90;99.90
20498;DHT22;10407;53.238;10.448;2022-12-18T13:11:44;-1.80;99.90
20498;DHT22;10407;53.238;10.448;2022-12-18T13:14:37;-2.10;99.90
20498;DHT22;10407;53.238;10.448;2022-12-18T13:17:24;-1.90;99.90
20498;DHT22;10407;53.238;10.448;2022-12-18T13:20:12;-2.10;99.90
20498;DHT22;10407;53.238;10.448;2022-12-18T13:22:48;-2.00;99.90
20498;DHT22;10407;53.238;10.448;2022-12-18T13:25:36;-2.00;99.90
20498;DHT22;10407;53.238;10.448;2022-12-18T13:28:12;-1.90;99.90
20498;DHT22;10407;53.238;10.448;2022-12-18T13:30:43;-1.90;99.90
20498;DHT22;10407;53.238;10.448;2022-12-18T13:33:46;-1.90;99.90
20498;DHT22;10407;53.238;10.448;2022-12-18T13:36:31;-1.90;99.90
20498;DHT22;10407;53.238;10.448;2022-12-18T13:42:21;-1.90;99.90
20498;DHT22;10407;53.238;10.448;2022-12-18T13:44:33;-2.00;99.90
20498;DHT22;10407;53.238;10.448;2022-12-18T13:47:19;-1.90;99.90
20498;DHT22;10407;53.238;10.448;2022-12-18T13:49:42;-1.90;99.90
20498;DHT22;10407;53.238;10.448;2022-12-18T13:52:24;-2.00;99.90
20498;DHT22;10407;53.238;10.448;2022-12-18T13:54:55;-2.10;99.90
20498;DHT22;10407;53.238;10.448;2022-12-18T13:57:29;-2.20;99.90
20498;DHT22;10407;53.238;10.448;2022-12-18T13:59:59;-2.10;99.90
20498;DHT22;10407;53.238;10.448;2022-12-18T14:02:28;-2.30;99.90
20498;DHT22;10407;53.238;10.448;2022-12-18T14:04:56;-2.40;99.90
20498;DHT22;10407;53.238;10.448;2022-12-18T14:07:26;-2.40;99.90
20498;DHT22;10407;53.238;10.448;2022-12-18T14:09:57;-2.50;99.90
20498;DHT22;10407;53.238;10.448;2022-12-18T14:12:31;-2.40;99.90
20498;DHT22;10407;53.238;10.448;2022-12-18T14:17:58;-2.50;99.90
20498;DHT22;10407;53.238;10.448;2022-12-18T14:20:29;-0.50;99.90
20498;DHT22;10407;53.238;10.448;2022-12-18T14:22:57;-1.90;99.90
20498;DHT22;10407;53.238;10.448;2022-12-18T14:25:28;-2.20;99.90
20498;DHT22;10407;53.238;10.448;2022-12-18T14:28:13;-2.30;99.90
20498;DHT22;10407;53.238;10.448;2022-12-18T14:30:41;-2.30;99.90
20498;DHT22;10407;53.238;10.448;2022-12-18T14:33:12;-2.30;99.90
20498;DHT22;10407;53.238;10.448;2022-12-18T14:35:43;-2.30;99.90
20498;DHT22;10407;53.238;10.448;2022-12-18T14:41:11;-2.50;99.90
20498;DHT22;10407;53.238;10.448;2022-12-18T14:43:41;-2.60;99.90
20498;DHT22;10407;53.238;10.448;2022-12-18T14:46:37;-2.50;99.90
20498;DHT22;10407;53.238;10.448;2022-12-18T14:51:55;-2.70;99.90
20498;DHT22;10407;53.238;10.448;2022-12-18T14:54:24;-2.60;99.90
20498;DHT22;10407;53.238;10.448;2022-12-18T14:57:00;-2.60;99.90
20498;DHT22;10407;53.238;10.448;2022-12-18T14:59:29;-2.60;99.90
20498;DHT22;10407;53.238;10.448;2022-12-18T15:04:38;-2.70;99.90
20498;DHT22;10407;53.238;10.448;2022-12-18T15:07:18;-2.70;99.90
20498;DHT22;10407;53.238;10.448;2022-12-18T15:10:12;-2.90;99.90
20498;DHT22;10407;53.238;10.448;2022-12-18T15:12:41;-2.80;99.90
20498;DHT22;10407;53.238;10.448;2022-12-18T15:18:09;-3.00;99.90
20498;DHT22;10407;53.238;10.448;2022-12-18T15:20:45;-2.90;99.90
20498;DHT22;10407;53.238;10.448;2022-12-18T15:25:57;-3.00;99.90
20498;DHT22;10407;53.238;10.448;2022-12-18T15:28:37;-3.00;99.90
20498;DHT22;10407;53.238;10.448;2022-12-18T15:36:23;-3.00;99.90
20498;DHT22;10407;53.238;10.448;2022-12-18T15:41:28;-3.10;99.90
20498;DHT22;10407;53.238;10.448;2022-12-18T15:43:55;-3.00;99.90
20498;DHT22;10407;53.238;10.448;2022-12-18T15:46:24;-3.00;99.90
20498;DHT22;10407;53.238;10.448;2022-12-18T15:48:54;-3.00;99.90
20498;DHT22;10407;53.238;10.448;2022-12-18T15:51:35;-3.00;99.90
20498;DHT22;10407;53.238;10.448;2022-12-18T15:54:04;-3.00;99.90
20498;DHT22;10407;53.238;10.448;2022-12-18T15:56:32;-3.00;99.90
20498;DHT22;10407;53.238;10.448;2022-12-18T15:59:19;-3.00;99.90
20498;DHT22;10407;53.238;10.448;2022-12-18T16:01:49;-3.00;99.90
20498;DHT22;10407;53.238;10.448;2022-12-18T16:04:19;-2.90;99.90
20498;DHT22;10407;53.238;10.448;2022-12-18T16:06:50;-2.90;99.90
20498;DHT22;10407;53.238;10.448;2022-12-18T16:09:19;-3.00;99.90
20498;DHT22;10407;53.238;10.448;2022-12-18T16:11:46;-2.90;99.90
20498;DHT22;10407;53.238;10.448;2022-12-18T16:16:58;-2.80;99.90
20498;DHT22;10407;53.238;10.448;2022-12-18T16:19:26;-2.80;99.90
20498;DHT22;10407;53.238;10.448;2022-12-18T16:21:56;-2.70;99.90
20498;DHT22;10407;53.238;10.448;2022-12-18T16:24:32;-2.80;99.90
20498;DHT22;10407;53.238;10.448;2022-12-18T16:27:00;-2.90;99.90
20498;DHT22;10407;53.238;10.448;2022-12-18T16:29:28;-2.90;99.90
20498;DHT22;10407;53.238;10.448;2022-12-18T16:31:58;-2.80;99.90
20498;DHT22;10407;53.238;10.448;2022-12-18T16:34:31;-2.80;99.90
20498;DHT22;10407;53.238;10.448;2022-12-18T16:37:01;-2.90;99.90
20498;DHT22;10407;53.238;10.448;2022-12-18T16:39:30;-2.80;99.90
20498;DHT22;10407;53.238;10.448;2022-12-18T16:41:58;-2.80;99.90
20498;DHT22;10407;53.238;10.448;2022-12-18T16:44:26;-2.80;99.90
20498;DHT22;10407;53.238;10.448;2022-12-18T16:47:13;-2.80;99.90
20498;DHT22;10407;53.238;10.448;2022-12-18T16:49:41;-2.80;99.90
20498;DHT22;10407;53.238;10.448;2022-12-18T16:52:11;-2.80;99.90
20498;DHT22;10407;53.238;10.448;2022-12-18T16:54:38;-2.80;99.90
20498;DHT22;10407;53.238;10.448;2022-12-18T16:57:06;-2.70;99.90
20498;DHT22;10407;53.238;10.448;2022-12-18T16:59:33;-2.80;99.90
20498;DHT22;10407;53.238;10.448;2022-12-18T17:02:01;-2.80;99.90
20498;DHT22;10407;53.238;10.448;2022-12-18T17:04:31;-2.70;99.90
20498;DHT22;10407;53.238;10.448;2022-12-18T17:06:59;-2.80;99.90
20498;DHT22;10407;53.238;10.448;2022-12-18T17:09:27;-2.80;99.90
20498;DHT22;10407;53.238;10.448;2022-12-18T17:11:54;-2.90;99.90
20498;DHT22;10407;53.238;10.448;2022-12-18T17:14:23;-2.70;99.90
20498;DHT22;10407;53.238;10.448;2022-12-18T17:16:52;-2.80;99.90
20498;DHT22;10407;53.238;10.448;2022-12-18T17:19:20;-2.70;99.90
20498;DHT22;10407;53.238;10.448;2022-12-18T17:21:48;-2.90;99.90
20498;DHT22;10407;53.238;10.448;2022-12-18T17:24:16;-2.70;99.90